Aérodrome :
LOGIN :

S'inscrire | Disclaimer

   EN    FR    IT 

 










Légende :    VFR   VFR Marginal   IFR   IFR Intensif   IFR Très Intensif
Visi : 
Plafond : 
>= 8 km
>= 3000ft
5 à 8 km
1000 à 3000 ft
1500m à 5 km
500 à 1000 ft
800 à 1500m
200 à 500 ft
< 800m
< 200 ft
Symboles :   Orages  Brouillard  Fortes neiges  Fortes précipitations  Vent > 20 kt
SIGMETs :   Divers  Orages  Givrage  Turbulence  Onde Orograph.  Cendres Volcan.






- Altitude de l'aérodrome : 309 ft
- Code IATA : FNI


LFTW - Nîmes Garons

DERNIER METAR :
  • 161230Z AUTO 04004KT 330V120 CAVOK 19/10 Q1017 NOSIG

METARs EXPIRÉS :
  • 161200Z AUTO 03006KT 320V060 CAVOK 19/10 Q1018 NOSIG
  • 161130Z AUTO 05006KT 010V070 CAVOK 18/09 Q1018 NOSIG
  • 161100Z AUTO 04008KT 010V080 CAVOK 18/09 Q1018 NOSIG
  • 161030Z AUTO 02008KT 360V090 CAVOK 18/09 Q1018 NOSIG
  • 161000Z AUTO 02010KT 360V060 CAVOK 17/08 Q1018 NOSIG

TAF TAF LFTW
Valide du 16 à 09h jusqu'au 17 à 09h UTC


160800Z 1609/1709 01010KT CAVOK



MET'MAP, la Météo Aéronautique d'un coup d'oeil ! - Copyright ORBIFLY Décembre 2007 - Disclaimer

ORBIFLY MET'MAP TEAM :

Programmation & Développement : Alexandra Zaïnal
Sur une idée originale de : Baudouin d'Aumeries
Assistance à la programmation : Marc-Olivier Méhu
Soutien technique & logistique : Manuel Goepfert

Contact : metmap@orbifly.com




SOURCES & CREDITS :

   NOAA